Time;durP1;ratioP1;P1;durP2;ratioP2;P2;SDS_P1;SDS_P2;PMS_P1;PMS_P2;Temp;Humidity;BMP_temperature;BMP_pressure;BME280_temperature;BME280_humidity;BME280_pressure;Samples;Min_cycle;Max_cycle;Signal;HPM_P1;HPM_P2
2022/12/19 00:00:44;;;;;;;21.73;13.97;;;;;;;2.44;73.26;96788.69;5084308;28;20594;-64
2022/12/19 00:03:11;;;;;;;22.00;13.40;;;;;;;2.48;72.54;96788.78;5084232;28;20229;-64
2022/12/19 00:05:38;;;;;;;19.83;13.20;;;;;;;2.48;72.89;96796.31;5083064;28;20290;-65
2022/12/19 00:08:05;;;;;;;20.87;12.83;;;;;;;2.46;72.97;96797.09;5084017;28;20229;-63
2022/12/19 00:10:34;;;;;;;20.07;12.70;;;;;;;2.45;73.04;96786.22;5082250;28;20241;-66
2022/12/19 00:13:00;;;;;;;18.00;12.50;;;;;;;2.52;72.07;96794.72;5083810;28;20198;-65
2022/12/19 00:15:27;;;;;;;23.98;12.73;;;;;;;2.50;72.48;96799.69;5081796;28;20615;-65
2022/12/19 00:17:54;;;;;;;19.67;13.13;;;;;;;2.53;72.29;96808.97;5082039;28;20286;-66
2022/12/19 00:20:21;;;;;;;21.13;13.87;;;;;;;2.34;73.20;96812.69;5081629;28;20281;-65
2022/12/19 00:22:47;;;;;;;21.37;13.70;;;;;;;2.45;72.45;96808.78;5082088;28;20233;-64
2022/12/19 00:25:14;;;;;;;22.57;13.83;;;;;;;2.42;72.50;96808.72;5083310;28;20219;-65
2022/12/19 00:27:42;;;;;;;26.43;12.53;;;;;;;2.39;72.80;96803.63;5083476;28;20210;-66
2022/12/19 00:30:11;;;;;;;21.50;13.63;;;;;;;2.51;73.33;96805.56;5083038;28;20569;-66
2022/12/19 00:32:38;;;;;;;20.87;14.10;;;;;;;2.46;72.50;96800.47;5082584;28;20290;-64
2022/12/19 00:35:05;;;;;;;24.17;14.33;;;;;;;2.48;72.97;96806.34;5085929;28;20639;-67
2022/12/19 00:37:32;;;;;;;20.67;13.97;;;;;;;2.38;72.98;96822.00;5086983;28;20501;-63
2022/12/19 00:39:58;;;;;;;20.97;13.53;;;;;;;2.33;74.28;96816.00;5082889;28;20737;-65
2022/12/19 00:42:25;;;;;;;18.77;14.03;;;;;;;2.37;74.05;96815.28;5083402;28;20309;-65
2022/12/19 00:44:53;;;;;;;20.93;13.10;;;;;;;2.40;73.50;96817.84;5083155;28;20212;-66
2022/12/19 00:47:20;;;;;;;21.80;13.87;;;;;;;2.41;73.17;96813.69;5080988;28;20193;-65
2022/12/19 00:49:49;;;;;;;19.70;13.43;;;;;;;2.45;74.15;96818.84;5083791;28;20266;-63
2022/12/19 00:52:15;;;;;;;21.73;13.47;;;;;;;2.56;74.06;96817.44;5083703;28;20208;-61
2022/12/19 00:54:42;;;;;;;22.00;13.53;;;;;;;2.73;73.00;96813.66;5082670;28;21944;-66
2022/12/19 00:57:09;;;;;;;21.30;14.17;;;;;;;2.67;72.67;96813.53;5083443;28;20724;-67
2022/12/19 00:59:36;;;;;;;17.97;13.70;;;;;;;2.65;72.62;96815.16;5090339;28;20709;-63
2022/12/19 01:02:04;;;;;;;18.88;13.35;;;;;;;2.69;73.03;96816.09;5084521;28;20201;-65
2022/12/19 01:04:30;;;;;;;21.27;13.63;;;;;;;2.70;72.41;96826.19;5081450;28;20634;-67
2022/12/19 01:06:58;;;;;;;22.70;13.97;;;;;;;2.70;72.53;96818.66;5081596;28;20214;-66
2022/12/19 01:09:24;;;;;;;21.80;13.05;;;;;;;2.69;72.67;96821.13;5082451;28;20709;-62
2022/12/19 01:14:35;;;;;;;21.47;13.37;;;;;;;2.56;73.25;96835.00;5081160;28;20231;-64
2022/12/19 01:17:04;;;;;;;21.80;13.77;;;;;;;2.67;73.30;96822.72;5081191;28;20241;-64
2022/12/19 01:19:30;;;;;;;22.67;14.07;;;;;;;2.58;73.61;96832.53;5081866;28;20221;-66
2022/12/19 01:21:57;;;;;;;19.47;12.93;;;;;;;2.57;74.12;96831.69;5081600;28;20775;-66
2022/12/19 01:24:24;;;;;;;19.53;13.40;;;;;;;2.50;73.77;96829.81;5083227;28;20205;-67
2022/12/19 01:26:50;;;;;;;22.10;14.63;;;;;;;2.59;73.41;96829.22;5082828;28;20263;-63
2022/12/19 01:29:17;;;;;;;20.20;13.15;;;;;;;2.47;73.42;96836.44;5083617;28;20588;-66
2022/12/19 01:31:44;;;;;;;20.27;14.20;;;;;;;2.42;74.08;96843.00;5084752;28;20245;-63
2022/12/19 01:34:12;;;;;;;22.47;13.73;;;;;;;2.39;73.90;96841.25;5085334;28;20760;-64
2022/12/19 01:36:39;;;;;;;24.73;13.95;;;;;;;2.51;73.29;96831.50;5086808;28;20216;-67
2022/12/19 01:39:06;;;;;;;21.93;14.43;;;;;;;2.45;73.05;96826.38;5085212;28;20243;-66
2022/12/19 01:41:32;;;;;;;23.63;14.45;;;;;;;2.34;73.75;96832.75;5084102;28;20245;-66
2022/12/19 01:44:01;;;;;;;21.13;13.68;;;;;;;2.32;74.28;96827.69;5084586;28;20648;-66
2022/12/19 01:46:34;;;;;;;24.20;14.40;;;;;;;2.23;73.71;96834.09;5085308;28;20686;-66
2022/12/19 01:49:02;;;;;;;22.33;13.43;;;;;;;2.19;74.32;96834.84;5084876;28;20201;-67
2022/12/19 01:51:37;;;;;;;23.40;13.93;;;;;;;2.08;74.11;96828.69;5086118;28;20201;-65
2022/12/19 01:54:07;;;;;;;23.17;13.90;;;;;;;2.07;75.27;96820.31;5084517;28;20229;-67
2022/12/19 01:56:39;;;;;;;22.97;13.57;;;;;;;2.11;74.71;96823.75;5084129;28;21127;-63
2022/12/19 01:59:09;;;;;;;21.07;13.63;;;;;;;2.13;75.15;96828.00;5086472;28;20202;-66
2022/12/19 02:01:38;;;;;;;20.17;14.07;;;;;;;2.11;73.56;96808.72;5084733;28;20754;-63
2022/12/19 02:04:06;;;;;;;18.37;13.17;;;;;;;2.18;73.70;96826.47;5083958;28;20648;-67
2022/12/19 02:06:35;;;;;;;19.42;13.65;;;;;;;2.09;74.70;96822.88;5083821;28;20338;-64
2022/12/19 02:09:02;;;;;;;18.87;12.90;;;;;;;2.11;74.92;96822.09;5085053;28;20229;-61
2022/12/19 02:11:28;;;;;;;22.53;14.30;;;;;;;2.15;74.25;96815.50;5084584;28;20771;-65
2022/12/19 02:13:55;;;;;;;21.30;13.57;;;;;;;2.22;74.69;96820.75;5085237;28;20297;-65
2022/12/19 02:16:33;;;;;;;20.70;13.80;;;;;;;2.27;74.87;96821.69;5083882;28;21172;-66
2022/12/19 02:19:16;;;;;;;21.63;13.85;;;;;;;2.11;74.39;96817.09;5084457;28;20290;-66
2022/12/19 02:21:56;;;;;;;19.85;12.93;;;;;;;2.18;73.67;96816.44;5084576;28;20606;-65
2022/12/19 02:24:47;;;;;;;21.20;12.93;;;;;;;2.17;74.14;96818.91;5084451;28;20214;-64
2022/12/19 02:27:48;;;;;;;23.87;13.77;;;;;;;2.26;74.91;96825.00;5085028;28;20778;-67
2022/12/19 02:30:17;;;;;;;21.80;14.50;;;;;;;2.32;73.96;96834.38;5084475;28;20208;-66
2022/12/19 02:33:01;;;;;;;22.88;14.32;;;;;;;2.37;73.54;96837.84;5084581;28;20611;-65
2022/12/19 02:35:34;;;;;;;24.87;14.07;;;;;;;2.30;73.76;96835.97;5084138;28;20636;-67
2022/12/19 02:38:12;;;;;;;22.57;13.47;;;;;;;2.38;73.50;96840.41;5084297;28;20209;-67
2022/12/19 02:40:42;;;;;;;23.20;14.23;;;;;;;2.46;73.35;96828.06;5084050;28;20339;-64
2022/12/19 02:43:12;;;;;;;21.23;12.57;;;;;;;2.37;73.86;96837.84;5084107;28;20206;-67
2022/12/19 02:45:40;;;;;;;22.07;14.67;;;;;;;2.43;72.87;96835.50;5083916;28;20210;-66
2022/12/19 02:48:09;;;;;;;19.83;13.20;;;;;;;2.47;72.66;96834.78;5083556;28;20205;-65
2022/12/19 02:50:38;;;;;;;22.57;13.47;;;;;;;2.42;73.20;96825.44;5084434;28;21183;-67
2022/12/19 02:53:06;;;;;;;21.90;13.77;;;;;;;2.33;72.87;96826.03;5083725;28;20205;-66
2022/12/19 02:55:42;;;;;;;23.33;13.93;;;;;;;2.34;72.73;96820.19;5084099;28;20209;-63
2022/12/19 02:58:21;;;;;;;23.43;14.27;;;;;;;2.14;73.96;96813.81;5083201;28;20196;-64
2022/12/19 03:01:01;;;;;;;21.83;13.37;;;;;;;2.20;73.47;96814.00;5084838;28;20259;-65
2022/12/19 03:03:40;;;;;;;22.10;13.90;;;;;;;2.22;73.29;96812.38;5084159;28;20699;-64
2022/12/19 03:06:14;;;;;;;20.07;13.37;;;;;;;2.07;73.89;96811.94;5085268;28;20209;-66
2022/12/19 03:08:47;;;;;;;23.00;13.43;;;;;;;2.03;73.76;96811.00;5084856;28;20838;-64
2022/12/19 03:11:15;;;;;;;22.40;14.17;;;;;;;1.96;74.14;96805.00;5084336;28;20743;-67
2022/12/19 03:13:46;;;;;;;20.13;13.47;;;;;;;1.96;74.47;96810.00;5084130;28;20288;-59
2022/12/19 03:16:13;;;;;;;19.57;13.53;;;;;;;1.89;74.22;96808.13;5082548;28;20259;-65
2022/12/19 03:18:42;;;;;;;19.47;13.10;;;;;;;1.85;74.18;96811.34;5084853;28;20215;-64
2022/12/19 03:21:15;;;;;;;22.87;13.87;;;;;;;1.73;74.44;96820.19;5084344;28;20660;-68
2022/12/19 03:23:42;;;;;;;23.00;13.97;;;;;;;1.75;75.48;96823.56;5084371;28;20243;-63
2022/12/19 03:26:12;;;;;;;21.30;13.60;;;;;;;1.65;75.34;96813.31;5083111;28;20254;-66
2022/12/19 03:28:45;;;;;;;22.75;13.93;;;;;;;1.78;75.04;96829.53;5082916;28;20205;-66
2022/12/19 03:31:15;;;;;;;24.80;14.35;;;;;;;1.70;75.49;96824.31;5082335;28;20246;-66
2022/12/19 03:33:47;;;;;;;22.93;14.53;;;;;;;1.66;75.46;96830.03;5082730;28;20233;-64
2022/12/19 03:36:20;;;;;;;23.50;13.90;;;;;;;1.61;76.51;96836.56;5082161;28;20208;-66
2022/12/19 03:38:48;;;;;;;23.83;13.73;;;;;;;1.60;76.41;96836.53;5082990;28;20205;-64
2022/12/19 03:43:07;;;;;;;22.50;13.70;;;;;;;1.48;76.05;96844.53;5083707;28;20279;-65
2022/12/19 03:44:07;;;;;;;21.77;13.30;;;;;;;1.47;76.18;96826.97;5082354;28;20293;-67
2022/12/19 03:46:37;;;;;;;22.80;14.40;;;;;;;1.52;76.36;96835.44;5083560;28;20236;-64
2022/12/19 03:49:05;;;;;;;22.57;13.27;;;;;;;1.56;75.89;96840.59;5082105;28;20210;-64
2022/12/19 03:51:40;;;;;;;23.67;14.37;;;;;;;1.58;74.93;96843.16;5082800;28;20204;-67
2022/12/19 03:54:11;;;;;;;19.17;13.47;;;;;;;1.46;75.75;96836.13;5080875;28;20303;-65
2022/12/19 03:56:45;;;;;;;22.90;13.53;;;;;;;1.46;75.50;96848.66;5082806;28;20325;-65
2022/12/19 03:59:17;;;;;;;22.17;13.47;;;;;;;1.55;75.77;96850.56;5083800;28;20204;-65
2022/12/19 04:01:45;;;;;;;20.87;12.90;;;;;;;1.70;75.19;96853.53;5078703;28;20258;-69
2022/12/19 04:04:14;;;;;;;25.20;15.38;;;;;;;1.74;75.06;96850.28;5078917;28;20286;-68
2022/12/19 04:06:43;;;;;;;24.50;14.33;;;;;;;1.84;74.38;96863.94;5082536;28;20217;-63
2022/12/19 04:09:10;;;;;;;20.00;13.23;;;;;;;1.79;75.54;96866.31;5081526;28;20618;-65
2022/12/19 04:11:41;;;;;;;24.00;14.87;;;;;;;1.80;74.51;96868.03;5081050;28;20287;-66
2022/12/19 04:14:14;;;;;;;20.80;13.27;;;;;;;1.96;74.34;96875.19;5080445;28;20638;-66
2022/12/19 04:16:47;;;;;;;24.83;14.10;;;;;;;1.95;73.81;96872.66;5082003;28;20673;-67
2022/12/19 04:19:20;;;;;;;21.30;13.53;;;;;;;1.94;74.70;96875.97;5081256;28;20239;-65
2022/12/19 04:21:52;;;;;;;23.30;14.40;;;;;;;1.90;73.92;96869.16;5082045;28;20263;-64
2022/12/19 04:24:23;;;;;;;21.43;14.07;;;;;;;1.92;73.63;96880.09;5083425;28;20215;-66
2022/12/19 04:26:54;;;;;;;22.73;14.13;;;;;;;1.91;72.91;96870.84;5081349;28;20206;-63
2022/12/19 04:29:22;;;;;;;30.70;17.43;;;;;;;1.89;73.84;96867.44;5083209;28;20202;-66
2022/12/19 04:31:49;;;;;;;22.93;14.47;;;;;;;1.88;72.71;96866.59;5081078;28;20190;-64
2022/12/19 04:34:20;;;;;;;26.97;14.87;;;;;;;1.80;73.75;96867.19;5095849;28;20217;-65
2022/12/19 04:36:47;;;;;;;23.03;14.67;;;;;;;1.67;74.10;96865.97;5111179;28;20193;-66
2022/12/19 04:39:14;;;;;;;20.93;14.47;;;;;;;1.69;74.44;96872.75;5110441;28;20250;-66
2022/12/19 04:41:41;;;;;;;21.13;14.00;;;;;;;1.78;73.85;96877.16;5110153;28;20644;-67
2022/12/19 04:44:07;;;;;;;28.00;14.83;;;;;;;1.90;73.46;96884.19;5110672;28;20197;-67
2022/12/19 04:46:34;;;;;;;20.87;13.47;;;;;;;1.92;74.10;96877.56;5111290;28;20197;-65
2022/12/19 04:49:01;;;;;;;25.93;14.80;;;;;;;2.01;73.34;96883.69;5111661;28;20270;-67
2022/12/19 04:51:29;;;;;;;26.63;14.50;;;;;;;2.01;73.13;96883.69;5111719;28;20254;-67
2022/12/19 04:53:56;;;;;;;27.50;16.23;;;;;;;1.95;73.76;96888.53;5111637;28;20193;-66
2022/12/19 04:56:23;;;;;;;29.17;16.77;;;;;;;1.97;73.73;96889.44;5111169;28;20562;-67
2022/12/19 04:58:49;;;;;;;34.50;18.30;;;;;;;1.97;73.83;96886.94;5111494;28;20200;-66
2022/12/19 05:01:17;;;;;;;27.83;16.03;;;;;;;2.08;73.29;96891.38;5110924;28;20217;-66
2022/12/19 05:03:43;;;;;;;27.53;15.80;;;;;;;2.12;73.06;96885.66;5095950;28;20206;-66
2022/12/19 05:06:12;;;;;;;23.83;14.90;;;;;;;2.12;74.11;96878.13;5089822;28;20671;-65
2022/12/19 05:08:43;;;;;;;29.53;15.63;;;;;;;2.28;73.44;96890.28;5090812;28;20708;-65
2022/12/19 05:11:11;;;;;;;26.93;14.23;;;;;;;2.23;72.99;96889.28;5089982;28;20205;-67
2022/12/19 05:13:38;;;;;;;23.27;13.73;;;;;;;2.02;73.26;96884.53;5090614;28;20294;-66
2022/12/19 05:16:08;;;;;;;23.70;14.17;;;;;;;1.84;74.12;96889.03;5090400;28;20205;-66
2022/12/19 05:18:36;;;;;;;50.90;25.57;;;;;;;1.63;74.56;96887.59;5090794;28;20255;-67
2022/12/19 05:21:04;;;;;;;29.40;15.70;;;;;;;1.62;74.69;96887.53;5090632;28;20201;-67
2022/12/19 05:23:30;;;;;;;30.90;17.00;;;;;;;1.56;74.46;96893.22;5090434;28;20194;-65
2022/12/19 05:25:59;;;;;;;27.27;16.13;;;;;;;1.49;74.61;96890.47;5090735;28;20201;-66
2022/12/19 05:28:26;;;;;;;27.23;15.90;;;;;;;1.49;75.52;96895.47;5090981;28;20198;-66
2022/12/19 05:31:02;;;;;;;30.73;15.90;;;;;;;1.51;74.65;96898.88;5090142;28;20193;-66
2022/12/19 05:33:29;;;;;;;23.47;13.63;;;;;;;1.47;74.58;96899.63;5090413;28;20274;-66
2022/12/19 05:35:55;;;;;;;25.13;15.37;;;;;;;1.53;74.90;96897.28;5090019;28;20616;-66
2022/12/19 05:38:22;;;;;;;28.37;16.50;;;;;;;1.46;75.72;96902.94;5090716;28;20197;-66
2022/12/19 05:40:49;;;;;;;26.77;15.47;;;;;;;1.60;74.66;96894.16;5090370;28;20201;-65
2022/12/19 05:43:17;;;;;;;31.03;18.17;;;;;;;1.60;75.13;96905.03;5090651;28;20271;-68
2022/12/19 05:45:43;;;;;;;32.83;16.53;;;;;;;1.59;75.80;96898.31;5090121;28;20247;-65
2022/12/19 05:48:10;;;;;;;24.67;14.80;;;;;;;1.62;75.17;96897.56;5090455;28;20204;-66
2022/12/19 05:50:37;;;;;;;29.80;14.73;;;;;;;1.57;75.26;96899.06;5090180;28;20205;-64
2022/12/19 05:53:04;;;;;;;25.00;14.97;;;;;;;1.62;74.96;96903.44;5090139;28;20194;-67
2022/12/19 05:55:30;;;;;;;26.87;15.33;;;;;;;1.66;75.03;96906.88;5090247;28;20220;-67
2022/12/19 05:57:57;;;;;;;26.33;15.43;;;;;;;1.63;74.70;96906.78;5090406;28;20197;-65
2022/12/19 06:00:25;;;;;;;27.73;15.23;;;;;;;1.63;74.00;96897.63;5090059;28;20254;-67
2022/12/19 06:02:52;;;;;;;26.53;14.17;;;;;;;1.68;75.01;96900.25;5089712;28;20308;-66
2022/12/19 06:05:18;;;;;;;30.03;15.63;;;;;;;1.67;74.37;96904.44;5089964;28;20732;-66
2022/12/19 06:07:45;;;;;;;30.07;15.93;;;;;;;1.68;74.17;96908.63;5090260;28;20198;-66
2022/12/19 06:10:12;;;;;;;25.13;14.93;;;;;;;1.70;74.34;96904.53;5090270;28;20201;-66
2022/12/19 06:12:38;;;;;;;28.13;15.60;;;;;;;1.78;75.05;96899.72;5090395;28;20633;-66
2022/12/19 06:15:06;;;;;;;25.03;15.63;;;;;;;1.83;74.18;96904.88;5090245;28;20238;-67
2022/12/19 06:17:34;;;;;;;24.67;15.67;;;;;;;1.99;74.39;96910.38;5090565;28;20201;-66
2022/12/19 06:20:01;;;;;;;28.93;16.43;;;;;;;1.92;74.79;96913.53;5094137;28;20251;-66
2022/12/19 06:22:28;;;;;;;31.37;16.93;;;;;;;2.04;74.43;96923.91;5093690;28;20232;-65
2022/12/19 06:24:54;;;;;;;32.23;18.70;;;;;;;2.06;73.20;96911.41;5093737;28;20274;-67
2022/12/19 06:27:21;;;;;;;34.40;18.53;;;;;;;1.97;73.50;96922.03;5093236;28;20193;-65
2022/12/19 06:29:48;;;;;;;31.00;17.77;;;;;;;2.11;73.32;96919.91;5093809;28;20197;-67
2022/12/19 06:32:14;;;;;;;33.63;17.87;;;;;;;2.17;73.43;96920.09;5093601;28;20190;-65
2022/12/19 06:34:42;;;;;;;29.23;16.03;;;;;;;2.40;73.54;96923.25;5093457;28;20221;-66
2022/12/19 06:37:09;;;;;;;23.40;13.40;;;;;;;2.57;72.72;96919.53;5093374;28;20255;-65
2022/12/19 06:39:36;;;;;;;23.10;14.43;;;;;;;2.71;72.27;96925.78;5093561;28;20622;-66
2022/12/19 06:44:47;;;;;;;22.30;13.80;;;;;;;3.03;71.63;96929.09;5093505;28;20200;-66
2022/12/19 06:47:14;;;;;;;25.03;15.60;;;;;;;3.26;70.14;96927.16;5093327;28;20247;-66
2022/12/19 06:49:42;;;;;;;27.65;14.27;;;;;;;3.21;69.99;96933.75;5093365;28;20193;-66
2022/12/19 06:52:09;;;;;;;29.90;16.50;;;;;;;3.12;69.00;96928.50;5093426;28;20255;-66
2022/12/19 06:54:35;;;;;;;23.52;15.07;;;;;;;2.95;70.23;96944.81;5093201;28;20736;-63
2022/12/19 06:57:02;;;;;;;26.20;15.07;;;;;;;3.20;68.92;96947.13;5093256;28;20278;-67
2022/12/19 06:59:29;;;;;;;33.87;17.70;;;;;;;3.12;69.94;96957.78;5093284;28;20257;-68
2022/12/19 07:02:00;;;;;;;38.33;17.33;;;;;;;3.16;70.00;96954.56;5092685;28;20770;-67
2022/12/19 07:04:30;;;;;;;29.23;17.77;;;;;;;2.97;70.16;96963.28;5093181;28;20271;-66
2022/12/19 07:06:59;;;;;;;46.37;19.57;;;;;;;2.97;70.12;96948.22;5092880;28;20262;-66
2022/12/19 07:09:26;;;;;;;37.53;20.17;;;;;;;3.13;69.69;96959.50;5092601;28;20679;-66
2022/12/19 07:11:53;;;;;;;48.33;23.00;;;;;;;3.13;69.65;96964.53;5092510;28;20518;-66
2022/12/19 07:14:20;;;;;;;35.75;20.65;;;;;;;3.17;68.98;96959.63;5092390;28;20393;-65
2022/12/19 07:16:48;;;;;;;42.15;20.67;;;;;;;3.06;69.30;96966.00;5092133;28;20205;-65
2022/12/19 07:19:15;;;;;;;28.80;17.35;;;;;;;2.90;69.49;96967.28;5092849;28;20201;-66
2022/12/19 07:21:42;;;;;;;36.83;20.67;;;;;;;2.87;68.88;96957.16;5092327;28;20706;-66
2022/12/19 07:24:12;;;;;;;32.87;19.73;;;;;;;2.94;70.41;96966.56;5092548;28;20667;-65
2022/12/19 07:26:38;;;;;;;33.50;20.30;;;;;;;3.02;70.05;96976.78;5092578;28;20202;-63
2022/12/19 07:29:05;;;;;;;32.07;17.93;;;;;;;3.04;69.65;96967.63;5092375;28;20259;-67
2022/12/19 07:31:32;;;;;;;30.43;17.20;;;;;;;3.16;69.62;96975.50;5092449;28;20206;-66
2022/12/19 07:33:59;;;;;;;30.87;16.87;;;;;;;3.31;68.65;96985.94;5092399;28;20214;-65
2022/12/19 07:36:25;;;;;;;30.83;16.37;;;;;;;3.31;67.87;96985.94;5092461;28;20240;-65
2022/12/19 07:38:52;;;;;;;33.40;18.60;;;;;;;3.19;68.76;96984.78;5092244;28;20671;-66
2022/12/19 07:41:20;;;;;;;32.10;18.37;;;;;;;3.17;68.23;96982.22;5092382;28;20202;-65
2022/12/19 07:43:47;;;;;;;33.53;18.47;;;;;;;3.25;69.33;96994.97;5092483;28;20225;-66
2022/12/19 07:46:14;;;;;;;48.53;23.80;;;;;;;3.29;68.80;96990.06;5092168;28;20190;-66
2022/12/19 07:48:41;;;;;;;38.67;21.03;;;;;;;3.41;68.75;97002.94;5092346;28;20239;-65
2022/12/19 07:51:08;;;;;;;36.55;19.65;;;;;;;3.31;69.20;97006.03;5092098;28;20200;-67
2022/12/19 07:53:35;;;;;;;38.10;20.97;;;;;;;3.32;68.45;97007.72;5091945;28;20255;-66
2022/12/19 07:56:01;;;;;;;33.27;20.57;;;;;;;3.17;69.10;97012.38;5092197;28;20197;-67
2022/12/19 07:58:30;;;;;;;35.80;20.10;;;;;;;3.15;69.07;97013.16;5092024;28;20209;-65
2022/12/19 08:00:59;;;;;;;38.17;20.93;;;;;;;3.20;68.37;97019.16;5092051;28;20251;-66
2022/12/19 08:03:35;;;;;;;36.47;19.80;;;;;;;3.15;69.01;97014.00;5091644;28;20225;-66
2022/12/19 08:06:04;;;;;;;37.28;19.95;;;;;;;3.26;68.64;97017.63;5091967;28;20193;-66
2022/12/19 08:08:32;;;;;;;35.85;19.58;;;;;;;3.18;68.59;97019.09;5091445;28;20619;-66
2022/12/19 08:11:07;;;;;;;37.97;20.80;;;;;;;3.34;69.25;97026.22;5091727;28;20206;-64
2022/12/19 08:13:35;;;;;;;37.15;20.02;;;;;;;3.38;69.06;97022.97;5091432;28;20189;-66
2022/12/19 08:16:02;;;;;;;44.25;22.15;;;;;;;3.15;68.88;97021.53;5091837;28;20288;-68
2022/12/19 08:18:29;;;;;;;36.13;22.73;;;;;;;3.16;68.93;97028.25;5091040;28;20259;-66
2022/12/19 08:20:56;;;;;;;43.67;22.27;;;;;;;3.19;68.76;97023.31;5091870;28;20197;-67
2022/12/19 08:23:23;;;;;;;35.88;20.50;;;;;;;3.11;68.97;97027.28;5091534;28;20282;-65
2022/12/19 08:25:58;;;;;;;40.03;23.17;;;;;;;3.04;70.57;97022.91;5091300;28;20241;-65
2022/12/19 08:28:25;;;;;;;39.20;23.20;;;;;;;3.12;69.92;97028.97;5091605;28;20254;-66
2022/12/19 08:30:53;;;;;;;44.20;23.17;;;;;;;3.22;69.70;97018.34;5091125;28;20197;-68
2022/12/19 08:33:19;;;;;;;44.03;24.40;;;;;;;3.36;69.81;97027.13;5081646;28;20249;-65
2022/12/19 08:35:46;;;;;;;41.97;23.33;;;;;;;3.34;69.80;97031.25;5080967;28;20209;-65
2022/12/19 08:38:13;;;;;;;44.35;24.02;;;;;;;3.39;69.44;97027.19;5079352;28;20197;-66
2022/12/19 08:40:40;;;;;;;48.35;23.33;;;;;;;3.46;69.31;97030.72;5081100;28;20205;-65
2022/12/19 08:43:06;;;;;;;44.63;23.83;;;;;;;3.61;69.91;97030.25;5081574;28;20261;-66
2022/12/19 08:45:33;;;;;;;42.10;23.33;;;;;;;3.70;69.16;97030.47;5082286;28;20245;-63
2022/12/19 08:48:01;;;;;;;50.30;25.27;;;;;;;3.65;69.22;97016.94;5082021;28;20275;-65
2022/12/19 08:50:28;;;;;;;38.97;22.90;;;;;;;3.70;69.46;97002.81;5081592;28;20209;-66
2022/12/19 08:52:54;;;;;;;39.20;21.85;;;;;;;3.78;68.92;97008.84;5080794;28;20190;-65
2022/12/19 08:55:21;;;;;;;39.63;21.52;;;;;;;3.97;67.62;97005.94;5081758;28;20220;-64
2022/12/19 08:57:48;;;;;;;40.13;21.30;;;;;;;3.46;68.72;96999.72;5082424;28;20295;-63
2022/12/19 09:00:16;;;;;;;34.33;19.97;;;;;;;3.52;68.66;97005.72;5080989;28;20205;-64
2022/12/19 09:02:42;;;;;;;42.00;20.52;;;;;;;3.29;69.24;97011.81;5081292;28;20225;-65
2022/12/19 09:05:10;;;;;;;35.77;19.83;;;;;;;3.04;69.96;97000.28;5082338;28;20201;-66
2022/12/19 09:07:38;;;;;;;34.77;19.73;;;;;;;2.91;70.55;97003.28;5081651;28;20218;-64
2022/12/19 09:10:06;;;;;;;40.63;20.57;;;;;;;2.96;71.33;96999.25;5081041;28;20237;-65
2022/12/19 09:12:33;;;;;;;42.57;21.63;;;;;;;2.97;71.15;96993.44;5082428;28;20221;-65
2022/12/19 09:14:59;;;;;;;44.93;21.20;;;;;;;2.93;71.20;96982.44;5081240;28;20297;-66
2022/12/19 09:17:28;;;;;;;44.40;22.37;;;;;;;2.84;71.57;96986.34;5082236;28;20205;-65
2022/12/19 09:19:54;;;;;;;46.43;22.20;;;;;;;2.84;72.58;96977.16;5081326;28;20198;-65
2022/12/19 09:22:22;;;;;;;40.97;22.27;;;;;;;2.96;71.94;96971.63;5081703;28;20257;-64
2022/12/19 09:24:49;;;;;;;50.57;21.27;;;;;;;2.85;72.03;96973.84;5081346;28;20263;-64
2022/12/19 09:27:16;;;;;;;41.13;23.13;;;;;;;2.89;72.75;96969.75;5081816;28;20241;-67
2022/12/19 09:29:43;;;;;;;44.67;21.70;;;;;;;2.86;72.91;96957.97;5082597;28;20201;-64
2022/12/19 09:32:09;;;;;;;39.97;22.83;;;;;;;2.72;73.67;96955.06;5081743;28;20211;-65
2022/12/19 09:34:37;;;;;;;29.90;19.77;;;;;;;2.63;73.35;96949.81;5082658;28;20274;-64
2022/12/19 09:37:04;;;;;;;41.00;19.83;;;;;;;2.67;73.52;96953.28;5081776;28;20205;-65
2022/12/19 09:39:32;;;;;;;43.97;19.30;;;;;;;2.67;73.94;96936.56;5081703;28;20727;-64
2022/12/19 09:42:25;;;;;;;34.17;20.70;;;;;;;2.92;73.75;96944.72;5081190;28;20596;-66
2022/12/19 09:45:11;;;;;;;38.90;20.87;;;;;;;2.96;73.36;96946.50;5081203;28;20245;-67
2022/12/19 09:47:42;;;;;;;43.17;19.53;;;;;;;2.97;73.43;96945.72;5081591;28;20202;-65
2022/12/19 09:50:24;;;;;;;38.27;19.13;;;;;;;2.97;73.42;96948.22;5080985;28;20326;-64
2022/12/19 09:52:57;;;;;;;36.67;20.53;;;;;;;3.00;73.83;96943.25;5084386;28;20201;-66
2022/12/19 09:55:28;;;;;;;35.50;20.03;;;;;;;3.06;73.35;96933.38;5084630;28;20957;-65
2022/12/19 09:58:02;;;;;;;34.37;18.33;;;;;;;3.01;74.06;96929.88;5085549;28;20201;-65
2022/12/19 10:00:35;;;;;;;35.17;20.67;;;;;;;2.92;74.17;96922.13;5084110;28;20664;-65
2022/12/19 10:03:09;;;;;;;38.07;18.97;;;;;;;2.98;74.97;96919.75;5085151;28;20303;-66
2022/12/19 10:05:42;;;;;;;29.63;17.30;;;;;;;2.92;74.90;96917.09;5085187;28;20233;-65
2022/12/19 10:08:16;;;;;;;36.77;20.50;;;;;;;3.10;74.94;96930.13;5084233;28;20286;-64
2022/12/19 10:10:56;;;;;;;37.33;20.20;;;;;;;3.37;74.65;96920.75;5084961;28;20744;-66
2022/12/19 10:13:32;;;;;;;36.63;20.20;;;;;;;3.50;74.17;96909.31;5085248;28;20702;-66
2022/12/19 10:16:05;;;;;;;33.67;18.27;;;;;;;3.57;74.31;96902.75;5084772;28;20282;-65
2022/12/19 10:18:44;;;;;;;35.53;18.70;;;;;;;3.50;74.82;96906.78;5084463;28;20222;-65
2022/12/19 10:21:20;;;;;;;36.87;20.33;;;;;;;3.54;74.59;96907.72;5084914;28;20225;-65
2022/12/19 10:24:11;;;;;;;37.90;20.17;;;;;;;3.69;74.11;96901.38;5084780;28;20225;-66
2022/12/19 10:26:45;;;;;;;34.30;18.17;;;;;;;3.79;74.13;96899.06;5084094;28;20211;-63
2022/12/19 10:29:45;;;;;;;32.23;18.00;;;;;;;3.52;74.56;96859.06;5085177;28;20201;-65
2022/12/19 10:32:19;;;;;;;31.00;17.00;;;;;;;3.61;75.09;96892.81;5056657;28;20591;-66
2022/12/19 10:34:48;;;;;;;28.35;15.90;;;;;;;3.61;74.79;96889.44;5085516;28;21614;-66
2022/12/19 10:37:20;;;;;;;30.08;16.95;;;;;;;3.68;75.03;96876.22;5083278;28;20210;-64
2022/12/19 10:40:10;;;;;;;28.10;14.83;;;;;;;3.61;75.28;96876.88;5084500;28;20269;-66
2022/12/19 10:42:48;;;;;;;23.50;15.37;;;;;;;3.59;75.52;96869.31;5084378;28;20307;-64
2022/12/19 10:45:17;;;;;;;27.25;15.68;;;;;;;3.58;75.52;96870.13;5085620;28;20204;-66
2022/12/19 10:47:46;;;;;;;33.50;18.37;;;;;;;3.66;75.35;96867.78;5083500;28;20209;-65
2022/12/19 10:50:17;;;;;;;33.20;16.30;;;;;;;3.72;75.25;96851.13;5081857;28;20329;-64
2022/12/19 10:52:51;;;;;;;32.57;17.60;;;;;;;3.80;74.58;96851.31;5083630;28;20255;-65
2022/12/19 10:55:38;;;;;;;32.00;17.30;;;;;;;3.84;74.91;96863.13;5082936;28;20196;-62
2022/12/19 10:58:18;;;;;;;30.13;15.63;;;;;;;3.84;75.29;96863.13;5083222;28;20210;-64
2022/12/19 11:01:02;;;;;;;30.33;18.13;;;;;;;3.72;75.93;96847.78;5084034;28;20215;-68
2022/12/19 11:03:29;;;;;;;26.02;16.23;;;;;;;4.04;75.18;96856.84;5082993;28;20236;-64
2022/12/19 11:05:57;;;;;;;30.43;16.37;;;;;;;4.06;74.43;96851.84;5085399;28;20229;-63
2022/12/19 11:08:26;;;;;;;32.17;17.07;;;;;;;4.25;74.31;96850.53;5082395;28;20262;-67
2022/12/19 11:10:55;;;;;;;26.57;16.30;;;;;;;4.34;73.95;96855.75;5083416;28;20263;-66
2022/12/19 11:13:26;;;;;;;27.83;16.33;;;;;;;4.30;73.82;96861.53;5084007;28;20591;-65
2022/12/19 11:15:54;;;;;;;26.87;16.13;;;;;;;4.15;74.27;96851.19;5084123;28;20626;-63
2022/12/19 11:18:22;;;;;;;24.98;16.63;;;;;;;4.03;74.94;96855.16;5083817;28;20817;-65
2022/12/19 11:20:55;;;;;;;31.85;18.45;;;;;;;4.02;75.03;96853.44;5082536;28;20261;-63
2022/12/19 11:23:24;;;;;;;29.27;16.87;;;;;;;4.07;74.85;96849.38;5083791;28;20268;-64
2022/12/19 11:25:57;;;;;;;26.75;15.35;;;;;;;3.98;75.58;96846.66;5082039;28;20225;-66
2022/12/19 11:28:29;;;;;;;31.73;16.30;;;;;;;3.90;76.05;96844.81;5083435;28;20284;-66
2022/12/19 11:31:00;;;;;;;26.42;15.07;;;;;;;3.86;76.29;96851.44;5082696;28;20201;-64
2022/12/19 11:33:27;;;;;;;27.13;14.95;;;;;;;3.89;76.40;96850.66;5082924;28;20652;-65
2022/12/19 11:35:57;;;;;;;33.47;15.63;;;;;;;3.87;76.54;96842.22;5083880;28;20217;-66
2022/12/19 11:38:41;;;;;;;27.93;16.07;;;;;;;3.96;76.32;96850.81;5081614;28;20210;-66
2022/12/19 11:41:16;;;;;;;32.63;15.52;;;;;;;3.89;76.29;96821.34;5081616;28;20204;-66